Hackberry, AZ (86411)

19:42 MST le 22 mai 2015 (GMT -0700)
Cedar Hills | | Change Station
CLOSE
Current Station
Stations météorologiques personnelles
Location: Kingman, AZ
Altitude: 3980 ft
Stations météo à proximité

Alt. 3980 ft 35.20 °N, 113.73 °W | Updated 26 seconds ago

Nuageux
Nuageux
56.1 ° F
Paraît 56.1 ° F
N
0.0
Vent Variable Vent de SE
Gusts 5.0 mph

Aujourd'hui
Haut(e) -- | Bas -- ° F
--% Risque de précip.
Hier
Haut(e) -- | Bas -- ° F
Precip. -- pouce
5:25 AM 7:37 PM
Lune montante, 26% visible
Pression 29.79 pouce
Visibilité -9999.0 Miles terrestres
Nuages Nuageux 6000 ft
Point de rosée 39 ° F
Humidité 52%
Précipitations 0.00 pouce
Profondeur de la couche neigeuse Non disponible.
UV 0.0 sur 12
Pollen 5.60 sur 12
Qualité de l'air Non disponible.
Flu Activity Local Activity
METAR KIGM 230151Z AUTO 21010KT BKN060 15/02 A2993 RMK AO2 SLP086 T01500022 $

More Conditions Fewer Conditions

Pression 29.79 pouce
Visibilité -9999.0 Miles terrestres
Nuages Nuageux 6000 ft
Point de rosée 39 ° F
Humidité 52%
Précipitations 0.00 pouce
Profondeur de la couche neigeuse Non disponible.
UV 0.0 sur 12
Pollen 5.60 sur 12
Qualité de l'air Non disponible.
Flu Activity Local Activity
METAR KIGM 230151Z AUTO 21010KT BKN060 15/02 A2993 RMK AO2 SLP086 T01500022 $

More Conditions Fewer Conditions

10-Day Weather Forecast

Almanac

Astronomie

May. 22, 2015 Lever Coucher
Temps réel
Crépuscule civil
Crépuscule nautique
Crépuscule astronomique
Lune
Durée de lumière visible
Longueur du jour
Tomorrow will be .
, % of the Moon is Illuminated

Extrêmes aujourd'hui

State Highs State Lows

Community

WunderPhotos

Upload Photos

1,823,371 Photos téléchargées !

WunderBlogs® & News

Nearby

Qualité de l'air

  Qualité de l'air Indice de la qualité de l'air Polluant
Not available.

Épaisseur de neige

Station Depth Altitude

Activité sismique

Ville Distance Mag. Time & Date
Minimum magnitude displayed is 2.5.

Températures des eaux côtières

Lieu Température

Stations

Stations météo à proximité

Emplacement de la station Température Refroidissement éolien Point de rosée Humidité Vent Precip. Alt. Mise à jour Type